sensor_id;sensor_type;location;lat;lon;timestamp;pressure;altitude;pressure_sealevel;temperature;humidity
49949;BME280;35840;45.982;8.890;2023-02-25T00:00:34;97353.63;;;8.10;98.30
49949;BME280;35840;45.982;8.890;2023-02-25T00:03:01;97358.97;;;8.20;97.79
49949;BME280;35840;45.982;8.890;2023-02-25T00:05:28;97358.75;;;8.23;97.90
49949;BME280;35840;45.982;8.890;2023-02-25T00:07:58;97357.53;;;8.03;97.28
49949;BME280;35840;45.982;8.890;2023-02-25T00:10:25;97350.22;;;7.84;98.00
49949;BME280;35840;45.982;8.890;2023-02-25T00:12:51;97344.81;;;7.75;98.07
49949;BME280;35840;45.982;8.890;2023-02-25T00:15:18;97344.81;;;7.75;98.02
49949;BME280;35840;45.982;8.890;2023-02-25T00:17:45;97348.72;;;7.81;97.59
49949;BME280;35840;45.982;8.890;2023-02-25T00:20:14;97338.06;;;7.87;97.51
49949;BME280;35840;45.982;8.890;2023-02-25T00:22:48;97334.97;;;7.95;97.65
49949;BME280;35840;45.982;8.890;2023-02-25T00:25:15;97318.81;;;7.82;97.72
49949;BME280;35840;45.982;8.890;2023-02-25T00:27:42;97325.69;;;7.94;97.32
49949;BME280;35840;45.982;8.890;2023-02-25T00:30:11;97336.41;;;7.99;96.13
49949;BME280;35840;45.982;8.890;2023-02-25T00:32:38;97335.94;;;8.07;95.12
49949;BME280;35840;45.982;8.890;2023-02-25T00:35:05;97334.59;;;8.01;95.68
49949;BME280;35840;45.982;8.890;2023-02-25T00:37:32;97331.31;;;7.99;95.82
49949;BME280;35840;45.982;8.890;2023-02-25T00:39:59;97318.91;;;7.93;95.99
49949;BME280;35840;45.982;8.890;2023-02-25T00:42:26;97323.03;;;7.96;96.47
49949;BME280;35840;45.982;8.890;2023-02-25T00:44:52;97328.84;;;7.98;95.95
49949;BME280;35840;45.982;8.890;2023-02-25T00:47:19;97319.03;;;8.04;96.05
49949;BME280;35840;45.982;8.890;2023-02-25T00:49:46;97312.56;;;8.12;95.27
49949;BME280;35840;45.982;8.890;2023-02-25T00:52:14;97323.50;;;8.14;94.06
49949;BME280;35840;45.982;8.890;2023-02-25T00:54:42;97311.03;;;8.09;94.00
49949;BME280;35840;45.982;8.890;2023-02-25T00:57:08;97311.25;;;8.06;94.23
49949;BME280;35840;45.982;8.890;2023-02-25T00:59:36;97303.03;;;8.01;94.31
49949;BME280;35840;45.982;8.890;2023-02-25T01:02:03;97293.44;;;7.91;94.26
49949;BME280;35840;45.982;8.890;2023-02-25T01:04:30;97294.66;;;7.86;94.08
49949;BME280;35840;45.982;8.890;2023-02-25T01:06:57;97299.16;;;7.82;94.40
49949;BME280;35840;45.982;8.890;2023-02-25T01:09:24;97290.47;;;7.85;94.22
49949;BME280;35840;45.982;8.890;2023-02-25T01:11:51;97286.88;;;7.87;94.25
49949;BME280;35840;45.982;8.890;2023-02-25T01:14:22;97289.44;;;7.87;94.22
49949;BME280;35840;45.982;8.890;2023-02-25T01:16:50;97283.91;;;7.81;94.11
49949;BME280;35840;45.982;8.890;2023-02-25T01:19:20;97288.81;;;7.84;94.32
49949;BME280;35840;45.982;8.890;2023-02-25T01:21:49;97283.31;;;7.90;94.64
49949;BME280;35840;45.982;8.890;2023-02-25T01:24:28;97275.94;;;7.85;94.25
49949;BME280;35840;45.982;8.890;2023-02-25T01:26:58;97274.09;;;7.87;94.93
49949;BME280;35840;45.982;8.890;2023-02-25T01:29:28;97278.50;;;7.85;95.52
49949;BME280;35840;45.982;8.890;2023-02-25T01:31:58;97274.41;;;7.83;95.77
49949;BME280;35840;45.982;8.890;2023-02-25T01:34:26;97267.84;;;7.91;95.96
49949;BME280;35840;45.982;8.890;2023-02-25T01:36:55;97270.81;;;7.98;95.48
49949;BME280;35840;45.982;8.890;2023-02-25T01:39:22;97261.38;;;7.99;95.64
49949;BME280;35840;45.982;8.890;2023-02-25T01:41:54;97261.72;;;7.94;96.29
49949;BME280;35840;45.982;8.890;2023-02-25T01:44:32;97260.59;;;7.98;95.94
49949;BME280;35840;45.982;8.890;2023-02-25T01:46:59;97247.88;;;7.97;96.18
49949;BME280;35840;45.982;8.890;2023-02-25T01:49:41;97246.25;;;7.96;95.60
49949;BME280;35840;45.982;8.890;2023-02-25T01:52:19;97249.03;;;7.92;96.29
49949;BME280;35840;45.982;8.890;2023-02-25T01:54:50;97244.94;;;7.77;95.80
49949;BME280;35840;45.982;8.890;2023-02-25T01:57:19;97243.59;;;7.84;95.61
49949;BME280;35840;45.982;8.890;2023-02-25T01:59:47;97225.38;;;7.89;95.63
49949;BME280;35840;45.982;8.890;2023-02-25T02:02:17;97209.72;;;7.81;95.30
49949;BME280;35840;45.982;8.890;2023-02-25T02:04:47;97224.25;;;7.80;95.23
49949;BME280;35840;45.982;8.890;2023-02-25T02:07:19;97228.16;;;7.73;95.80
49949;BME280;35840;45.982;8.890;2023-02-25T02:09:47;97222.63;;;7.66;96.17
49949;BME280;35840;45.982;8.890;2023-02-25T02:12:38;97208.59;;;7.72;96.00
49949;BME280;35840;45.982;8.890;2023-02-25T02:15:13;97221.69;;;7.80;96.64
49949;BME280;35840;45.982;8.890;2023-02-25T02:17:58;97222.09;;;7.87;95.96
49949;BME280;35840;45.982;8.890;2023-02-25T02:20:29;97211.13;;;7.85;96.26
49949;BME280;35840;45.982;8.890;2023-02-25T02:37:59;97179.72;;;7.83;97.29
49949;BME280;35840;45.982;8.890;2023-02-25T02:44:02;97174.00;;;7.66;98.49
49949;BME280;35840;45.982;8.890;2023-02-25T02:46:28;97169.53;;;7.70;99.17
49949;BME280;35840;45.982;8.890;2023-02-25T02:51:58;97175.56;;;7.69;99.95
49949;BME280;35840;45.982;8.890;2023-02-25T02:54:30;97163.56;;;7.69;100.00
49949;BME280;35840;45.982;8.890;2023-02-25T02:56:59;97173.81;;;7.69;99.69
49949;BME280;35840;45.982;8.890;2023-02-25T02:59:47;97179.25;;;7.65;99.45
49949;BME280;35840;45.982;8.890;2023-02-25T03:02:20;97168.38;;;7.61;100.00
49949;BME280;35840;45.982;8.890;2023-02-25T03:04:50;97166.03;;;7.58;99.79
49949;BME280;35840;45.982;8.890;2023-02-25T03:07:21;97157.13;;;7.64;99.24
49949;BME280;35840;45.982;8.890;2023-02-25T03:09:54;97162.25;;;7.51;98.20
49949;BME280;35840;45.982;8.890;2023-02-25T03:12:24;97157.88;;;7.53;98.38
49949;BME280;35840;45.982;8.890;2023-02-25T03:14:52;97159.59;;;7.52;98.52
49949;BME280;35840;45.982;8.890;2023-02-25T03:17:28;97163.69;;;7.55;97.45
49949;BME280;35840;45.982;8.890;2023-02-25T03:20:09;97162.88;;;7.54;96.90
49949;BME280;35840;45.982;8.890;2023-02-25T03:22:39;97169.72;;;7.54;97.42
49949;BME280;35840;45.982;8.890;2023-02-25T03:27:41;97169.13;;;7.50;99.25
49949;BME280;35840;45.982;8.890;2023-02-25T03:32:48;97154.69;;;7.49;97.55
49949;BME280;35840;45.982;8.890;2023-02-25T03:35:19;97156.66;;;7.46;98.17
49949;BME280;35840;45.982;8.890;2023-02-25T03:37:49;97158.47;;;7.44;98.67
49949;BME280;35840;45.982;8.890;2023-02-25T03:40:18;97159.91;;;7.48;98.51
49949;BME280;35840;45.982;8.890;2023-02-25T03:42:56;97152.44;;;7.45;98.24
49949;BME280;35840;45.982;8.890;2023-02-25T03:45:26;97150.50;;;7.35;97.37
49949;BME280;35840;45.982;8.890;2023-02-25T03:47:54;97163.69;;;7.29;97.29
49949;BME280;35840;45.982;8.890;2023-02-25T03:50:23;97155.31;;;7.27;97.74
49949;BME280;35840;45.982;8.890;2023-02-25T03:52:57;97143.16;;;7.31;98.05
49949;BME280;35840;45.982;8.890;2023-02-25T03:55:50;97134.16;;;7.25;97.73
49949;BME280;35840;45.982;8.890;2023-02-25T03:58:18;97142.13;;;7.33;98.25
49949;BME280;35840;45.982;8.890;2023-02-25T04:00:47;97140.59;;;7.31;97.78
49949;BME280;35840;45.982;8.890;2023-02-25T04:03:16;97139.78;;;7.30;98.16
49949;BME280;35840;45.982;8.890;2023-02-25T04:05:43;97150.81;;;7.31;98.04
49949;BME280;35840;45.982;8.890;2023-02-25T04:08:10;97148.38;;;7.29;98.01
49949;BME280;35840;45.982;8.890;2023-02-25T04:10:43;97141.72;;;7.27;97.99
49949;BME280;35840;45.982;8.890;2023-02-25T04:13:13;97146.94;;;7.25;98.47
49949;BME280;35840;45.982;8.890;2023-02-25T04:15:40;97144.69;;;7.20;98.65
49949;BME280;35840;45.982;8.890;2023-02-25T04:18:08;97148.56;;;7.26;98.44
49949;BME280;35840;45.982;8.890;2023-02-25T04:20:34;97146.31;;;7.21;96.77
49949;BME280;35840;45.982;8.890;2023-02-25T04:23:01;97135.97;;;7.10;97.21
49949;BME280;35840;45.982;8.890;2023-02-25T04:25:28;97147.34;;;7.19;97.74
49949;BME280;35840;45.982;8.890;2023-02-25T04:27:54;97137.94;;;7.19;97.95
49949;BME280;35840;45.982;8.890;2023-02-25T04:30:21;97143.75;;;7.21;97.82
49949;BME280;35840;45.982;8.890;2023-02-25T04:32:48;97153.78;;;7.24;97.98
49949;BME280;35840;45.982;8.890;2023-02-25T04:35:15;97156.44;;;7.23;97.92
49949;BME280;35840;45.982;8.890;2023-02-25T04:37:42;97156.84;;;7.17;97.68
49949;BME280;35840;45.982;8.890;2023-02-25T04:40:13;97149.97;;;7.04;97.87
49949;BME280;35840;45.982;8.890;2023-02-25T04:42:40;97150.06;;;6.90;99.00
49949;BME280;35840;45.982;8.890;2023-02-25T04:45:08;97157.81;;;6.88;99.65
49949;BME280;35840;45.982;8.890;2023-02-25T04:47:36;97154.25;;;6.78;100.00
49949;BME280;35840;45.982;8.890;2023-02-25T04:50:03;97143.63;;;6.84;100.00
49949;BME280;35840;45.982;8.890;2023-02-25T04:52:30;97142.41;;;6.90;100.00
49949;BME280;35840;45.982;8.890;2023-02-25T04:54:58;97141.28;;;6.94;100.00
49949;BME280;35840;45.982;8.890;2023-02-25T04:57:25;97135.84;;;6.86;100.00
49949;BME280;35840;45.982;8.890;2023-02-25T04:59:52;97138.72;;;6.81;100.00
49949;BME280;35840;45.982;8.890;2023-02-25T05:02:19;97124.00;;;6.72;100.00
49949;BME280;35840;45.982;8.890;2023-02-25T05:04:45;97137.03;;;6.67;99.51
49949;BME280;35840;45.982;8.890;2023-02-25T05:07:14;97130.88;;;6.57;98.81
49949;BME280;35840;45.982;8.890;2023-02-25T05:09:41;97138.16;;;6.63;99.95
49949;BME280;35840;45.982;8.890;2023-02-25T05:12:07;97134.59;;;6.66;99.87
49949;BME280;35840;45.982;8.890;2023-02-25T05:14:36;97131.81;;;6.69;99.38
49949;BME280;35840;45.982;8.890;2023-02-25T05:17:03;97131.13;;;6.67;99.79
49949;BME280;35840;45.982;8.890;2023-02-25T05:19:30;97128.06;;;6.75;98.36
49949;BME280;35840;45.982;8.890;2023-02-25T05:21:56;97130.00;;;6.71;98.77
49949;BME280;35840;45.982;8.890;2023-02-25T05:24:23;97129.59;;;6.77;98.97
49949;BME280;35840;45.982;8.890;2023-02-25T05:26:50;97128.69;;;6.78;97.70
49949;BME280;35840;45.982;8.890;2023-02-25T05:29:17;97125.81;;;6.70;98.73
49949;BME280;35840;45.982;8.890;2023-02-25T05:31:44;97125.09;;;6.68;98.88
49949;BME280;35840;45.982;8.890;2023-02-25T05:34:11;97128.25;;;6.71;98.27
49949;BME280;35840;45.982;8.890;2023-02-25T05:36:39;97126.56;;;6.72;98.35
49949;BME280;35840;45.982;8.890;2023-02-25T05:39:06;97128.06;;;6.75;97.96
49949;BME280;35840;45.982;8.890;2023-02-25T05:41:32;97125.53;;;6.87;97.69
49949;BME280;35840;45.982;8.890;2023-02-25T05:43:59;97118.69;;;6.88;97.30
49949;BME280;35840;45.982;8.890;2023-02-25T05:46:26;97127.28;;;6.87;97.34
49949;BME280;35840;45.982;8.890;2023-02-25T05:48:53;97125.25;;;6.92;97.94
49949;BME280;35840;45.982;8.890;2023-02-25T05:51:21;97114.59;;;6.85;98.47
49949;BME280;35840;45.982;8.890;2023-02-25T05:53:50;97125.16;;;6.94;98.66
49949;BME280;35840;45.982;8.890;2023-02-25T05:56:22;97122.78;;;6.78;97.03
49949;BME280;35840;45.982;8.890;2023-02-25T05:58:51;97120.22;;;6.78;97.06
49949;BME280;35840;45.982;8.890;2023-02-25T06:01:21;97125.41;;;6.76;97.04
49949;BME280;35840;45.982;8.890;2023-02-25T06:03:49;97113.25;;;6.80;97.55
49949;BME280;35840;45.982;8.890;2023-02-25T06:06:18;97113.97;;;6.82;97.76
49949;BME280;35840;45.982;8.890;2023-02-25T06:08:50;97113.59;;;6.88;97.88
49949;BME280;35840;45.982;8.890;2023-02-25T06:11:22;97111.75;;;6.90;97.19
49949;BME280;35840;45.982;8.890;2023-02-25T06:13:50;97107.25;;;6.94;95.78
49949;BME280;35840;45.982;8.890;2023-02-25T06:16:17;97110.13;;;6.89;95.79
49949;BME280;35840;45.982;8.890;2023-02-25T06:18:46;97113.06;;;6.96;95.93
49949;BME280;35840;45.982;8.890;2023-02-25T06:21:14;97102.94;;;6.94;95.18
49949;BME280;35840;45.982;8.890;2023-02-25T06:23:43;97099.81;;;6.91;94.46
49949;BME280;35840;45.982;8.890;2023-02-25T06:26:12;97100.81;;;6.88;94.96
49949;BME280;35840;45.982;8.890;2023-02-25T06:28:39;97104.28;;;6.87;94.80
49949;BME280;35840;45.982;8.890;2023-02-25T06:31:11;97099.97;;;6.87;95.27
49949;BME280;35840;45.982;8.890;2023-02-25T06:33:39;97093.97;;;6.88;94.36
49949;BME280;35840;45.982;8.890;2023-02-25T06:36:07;97110.13;;;6.89;93.26
49949;BME280;35840;45.982;8.890;2023-02-25T06:38:34;97093.25;;;6.86;93.42
49949;BME280;35840;45.982;8.890;2023-02-25T06:41:08;97103.59;;;6.98;92.49
49949;BME280;35840;45.982;8.890;2023-02-25T06:43:36;97095.59;;;7.02;92.37
49949;BME280;35840;45.982;8.890;2023-02-25T06:46:08;97092.13;;;6.91;90.69
49949;BME280;35840;45.982;8.890;2023-02-25T06:48:35;97097.72;;;6.83;91.11
49949;BME280;35840;45.982;8.890;2023-02-25T06:51:02;97093.94;;;6.63;91.40
49949;BME280;35840;45.982;8.890;2023-02-25T06:53:38;97104.44;;;6.58;92.80
49949;BME280;35840;45.982;8.890;2023-02-25T06:56:05;97093.03;;;6.64;92.39
49949;BME280;35840;45.982;8.890;2023-02-25T06:58:34;97098.63;;;6.69;92.21
49949;BME280;35840;45.982;8.890;2023-02-25T07:01:06;97092.00;;;6.66;92.18
49949;BME280;35840;45.982;8.890;2023-02-25T07:03:33;97093.72;;;6.66;92.66
49949;BME280;35840;45.982;8.890;2023-02-25T07:06:00;97097.63;;;6.71;92.47
49949;BME280;35840;45.982;8.890;2023-02-25T07:08:27;97088.75;;;6.77;91.33
49949;BME280;35840;45.982;8.890;2023-02-25T07:10:54;97087.94;;;6.77;91.56
49949;BME280;35840;45.982;8.890;2023-02-25T07:13:21;97087.13;;;6.89;91.50
49949;BME280;35840;45.982;8.890;2023-02-25T07:15:48;97091.72;;;6.84;89.70
49949;BME280;35840;45.982;8.890;2023-02-25T07:18:14;97091.81;;;6.82;89.76
49949;BME280;35840;45.982;8.890;2023-02-25T07:20:41;97090.91;;;6.83;90.33
49949;BME280;35840;45.982;8.890;2023-02-25T07:23:08;97089.16;;;6.84;90.74
49949;BME280;35840;45.982;8.890;2023-02-25T07:25:37;97088.44;;;6.82;90.89
49949;BME280;35840;45.982;8.890;2023-02-25T07:28:03;97089.38;;;6.81;91.61
49949;BME280;35840;45.982;8.890;2023-02-25T07:30:30;97078.03;;;6.85;92.30
49949;BME280;35840;45.982;8.890;2023-02-25T07:32:57;97082.72;;;6.91;92.57
49949;BME280;35840;45.982;8.890;2023-02-25T07:35:23;97077.63;;;7.04;92.62
49949;BME280;35840;45.982;8.890;2023-02-25T07:37:50;97087.03;;;7.03;93.32
49949;BME280;35840;45.982;8.890;2023-02-25T07:40:17;97080.16;;;7.04;93.82
49949;BME280;35840;45.982;8.890;2023-02-25T07:42:43;97076.91;;;7.02;93.56
49949;BME280;35840;45.982;8.890;2023-02-25T07:45:11;97075.88;;;7.04;93.78
49949;BME280;35840;45.982;8.890;2023-02-25T07:47:37;97077.28;;;7.09;94.44
49949;BME280;35840;45.982;8.890;2023-02-25T07:50:06;97064.53;;;7.09;94.68
49949;BME280;35840;45.982;8.890;2023-02-25T07:52:33;97066.38;;;7.19;94.40
49949;BME280;35840;45.982;8.890;2023-02-25T07:55:03;97058.47;;;7.22;94.81
49949;BME280;35840;45.982;8.890;2023-02-25T07:57:31;97059.91;;;7.27;95.59
49949;BME280;35840;45.982;8.890;2023-02-25T07:59:57;97056.75;;;7.23;95.47
49949;BME280;35840;45.982;8.890;2023-02-25T08:02:24;97066.38;;;7.19;95.27
49949;BME280;35840;45.982;8.890;2023-02-25T08:04:51;97061.03;;;7.22;95.22
49949;BME280;35840;45.982;8.890;2023-02-25T08:07:18;97048.03;;;7.26;95.46
49949;BME280;35840;45.982;8.890;2023-02-25T08:09:45;97047.75;;;7.30;94.76
49949;BME280;35840;45.982;8.890;2023-02-25T08:12:12;97048.97;;;7.37;95.42
49949;BME280;35840;45.982;8.890;2023-02-25T08:14:39;97039.66;;;7.36;95.56
49949;BME280;35840;45.982;8.890;2023-02-25T08:17:05;97037.09;;;7.36;95.71
49949;BME280;35840;45.982;8.890;2023-02-25T08:19:32;97022.56;;;7.37;96.26
49949;BME280;35840;45.982;8.890;2023-02-25T08:21:59;97026.44;;;7.43;96.97
49949;BME280;35840;45.982;8.890;2023-02-25T08:24:26;97033.81;;;7.47;96.53
49949;BME280;35840;45.982;8.890;2023-02-25T08:26:52;97029.16;;;7.52;95.58
49949;BME280;35840;45.982;8.890;2023-02-25T08:29:20;97027.84;;;7.47;95.68
49949;BME280;35840;45.982;8.890;2023-02-25T08:31:49;97027.38;;;7.41;96.26
49949;BME280;35840;45.982;8.890;2023-02-25T08:34:17;97030.75;;;7.42;96.59
49949;BME280;35840;45.982;8.890;2023-02-25T08:36:44;97028.88;;;7.44;96.52
49949;BME280;35840;45.982;8.890;2023-02-25T08:39:10;97024.28;;;7.49;96.21
49949;BME280;35840;45.982;8.890;2023-02-25T08:41:37;97018.56;;;7.46;95.67
49949;BME280;35840;45.982;8.890;2023-02-25T08:44:04;97019.16;;;7.49;96.21
49949;BME280;35840;45.982;8.890;2023-02-25T08:46:33;96996.69;;;7.41;96.30
49949;BME280;35840;45.982;8.890;2023-02-25T08:49:00;97011.16;;;7.54;95.90
49949;BME280;35840;45.982;8.890;2023-02-25T08:51:27;96999.31;;;7.53;96.09
49949;BME280;35840;45.982;8.890;2023-02-25T08:54:05;96997.69;;;7.52;95.98
49949;BME280;35840;45.982;8.890;2023-02-25T08:56:33;96990.00;;;7.52;96.29
49949;BME280;35840;45.982;8.890;2023-02-25T08:59:01;96982.13;;;7.55;96.04
49949;BME280;35840;45.982;8.890;2023-02-25T09:01:29;96979.22;;;7.59;96.55
49949;BME280;35840;45.982;8.890;2023-02-25T09:04:19;96980.34;;;7.68;95.77
49949;BME280;35840;45.982;8.890;2023-02-25T09:06:50;96985.13;;;7.73;95.95
49949;BME280;35840;45.982;8.890;2023-02-25T09:09:20;96964.78;;;7.71;95.21
49949;BME280;35840;45.982;8.890;2023-02-25T09:11:48;96966.81;;;7.66;95.46
49949;BME280;35840;45.982;8.890;2023-02-25T09:14:15;96963.34;;;7.67;95.01
49949;BME280;35840;45.982;8.890;2023-02-25T09:16:42;96954.66;;;7.70;95.25
49949;BME280;35840;45.982;8.890;2023-02-25T09:19:10;96947.13;;;7.80;95.48
49949;BME280;35840;45.982;8.890;2023-02-25T09:21:38;96943.13;;;7.64;94.44
49949;BME280;35840;45.982;8.890;2023-02-25T09:24:09;96947.66;;;7.72;95.76
49949;BME280;35840;45.982;8.890;2023-02-25T09:26:37;96949.09;;;7.76;95.37
49949;BME280;35840;45.982;8.890;2023-02-25T09:29:06;96944.66;;;7.78;96.21
49949;BME280;35840;45.982;8.890;2023-02-25T09:31:34;96946.06;;;7.82;96.15
49949;BME280;35840;45.982;8.890;2023-02-25T09:34:04;96941.44;;;7.87;95.96
49949;BME280;35840;45.982;8.890;2023-02-25T09:36:32;96938.56;;;7.92;95.00
49949;BME280;35840;45.982;8.890;2023-02-25T09:38:59;96936.22;;;7.89;94.96
49949;BME280;35840;45.982;8.890;2023-02-25T09:44:12;96931.81;;;8.02;95.15
49949;BME280;35840;45.982;8.890;2023-02-25T09:47:03;96937.06;;;8.01;94.02
49949;BME280;35840;45.982;8.890;2023-02-25T09:49:52;96930.34;;;8.00;94.57
49949;BME280;35840;45.982;8.890;2023-02-25T09:55:05;96923.69;;;7.97;94.86
49949;BME280;35840;45.982;8.890;2023-02-25T09:57:37;96925.19;;;7.88;94.95
49949;BME280;35840;45.982;8.890;2023-02-25T10:00:15;96913.91;;;8.02;94.98
49949;BME280;35840;45.982;8.890;2023-02-25T10:02:52;96904.88;;;8.09;94.97
49949;BME280;35840;45.982;8.890;2023-02-25T10:05:37;96908.63;;;8.17;95.14
49949;BME280;35840;45.982;8.890;2023-02-25T10:11:12;96901.16;;;8.25;94.59
49949;BME280;35840;45.982;8.890;2023-02-25T10:19:17;96897.97;;;8.46;94.62
49949;BME280;35840;45.982;8.890;2023-02-25T10:21:55;96894.81;;;8.53;94.15
49949;BME280;35840;45.982;8.890;2023-02-25T10:27:08;96889.94;;;8.61;93.43
49949;BME280;35840;45.982;8.890;2023-02-25T10:29:44;96880.38;;;8.64;92.94
49949;BME280;35840;45.982;8.890;2023-02-25T10:32:27;96879.91;;;8.70;92.83
49949;BME280;35840;45.982;8.890;2023-02-25T10:34:58;96838.81;;;8.60;92.37
49949;BME280;35840;45.982;8.890;2023-02-25T10:37:31;96849.50;;;8.76;91.69
49949;BME280;35840;45.982;8.890;2023-02-25T10:40:00;96843.69;;;8.74;91.97
49949;BME280;35840;45.982;8.890;2023-02-25T10:42:30;96832.84;;;8.82;91.88
49949;BME280;35840;45.982;8.890;2023-02-25T10:45:04;96839.00;;;8.91;91.97
49949;BME280;35840;45.982;8.890;2023-02-25T10:47:36;96825.56;;;8.99;91.52
49949;BME280;35840;45.982;8.890;2023-02-25T10:53:04;96832.00;;;9.25;92.41
49949;BME280;35840;45.982;8.890;2023-02-25T10:55:49;96833.59;;;9.38;91.06
49949;BME280;35840;45.982;8.890;2023-02-25T11:01:21;96823.47;;;9.36;87.56
49949;BME280;35840;45.982;8.890;2023-02-25T11:04:07;96816.59;;;9.37;86.40
49949;BME280;35840;45.982;8.890;2023-02-25T11:06:38;96815.28;;;9.42;85.78
49949;BME280;35840;45.982;8.890;2023-02-25T11:11:59;96805.19;;;9.93;87.49
49949;BME280;35840;45.982;8.890;2023-02-25T11:17:05;96791.38;;;10.46;87.39
49949;BME280;35840;45.982;8.890;2023-02-25T11:19:46;96785.06;;;10.60;82.00
49949;BME280;35840;45.982;8.890;2023-02-25T11:22:21;96785.75;;;10.62;83.80
49949;BME280;35840;45.982;8.890;2023-02-25T11:24:57;96777.59;;;10.47;83.05
49949;BME280;35840;45.982;8.890;2023-02-25T11:27:32;96775.59;;;10.50;83.42
49949;BME280;35840;45.982;8.890;2023-02-25T11:30:16;96769.38;;;10.73;83.99
49949;BME280;35840;45.982;8.890;2023-02-25T11:32:48;96763.59;;;10.80;82.31
49949;BME280;35840;45.982;8.890;2023-02-25T11:35:24;96747.22;;;10.81;80.88
49949;BME280;35840;45.982;8.890;2023-02-25T11:37:58;96762.13;;;10.88;81.63
49949;BME280;35840;45.982;8.890;2023-02-25T11:40:43;96757.09;;;10.86;81.67
49949;BME280;35840;45.982;8.890;2023-02-25T11:43:21;96745.72;;;10.98;79.85
49949;BME280;35840;45.982;8.890;2023-02-25T11:45:59;96734.38;;;11.01;79.52
49949;BME280;35840;45.982;8.890;2023-02-25T11:48:28;96734.50;;;11.29;78.47
49949;BME280;35840;45.982;8.890;2023-02-25T11:57:12;96724.16;;;11.48;77.19
49949;BME280;35840;45.982;8.890;2023-02-25T12:02:57;96710.78;;;11.82;73.94
49949;BME280;35840;45.982;8.890;2023-02-25T12:36:22;96640.97;;;12.85;65.10
49949;BME280;35840;45.982;8.890;2023-02-25T12:39:05;96626.19;;;12.87;64.09
49949;BME280;35840;45.982;8.890;2023-02-25T12:41:42;96620.41;;;12.94;64.33
49949;BME280;35840;45.982;8.890;2023-02-25T12:47:20;96603.31;;;13.45;59.70
49949;BME280;35840;45.982;8.890;2023-02-25T12:53:21;96596.44;;;13.62;59.33
49949;BME280;35840;45.982;8.890;2023-02-25T12:59:39;96576.19;;;13.75;58.77
49949;BME280;35840;45.982;8.890;2023-02-25T13:11:00;96557.66;;;14.13;58.97
49949;BME280;35840;45.982;8.890;2023-02-25T13:16:51;96547.50;;;14.20;59.36
49949;BME280;35840;45.982;8.890;2023-02-25T13:27:34;96525.84;;;14.45;58.79
49949;BME280;35840;45.982;8.890;2023-02-25T13:30:31;96518.91;;;14.54;56.84
49949;BME280;35840;45.982;8.890;2023-02-25T13:44:35;96498.47;;;15.01;54.38
49949;BME280;35840;45.982;8.890;2023-02-25T14:18:10;96455.22;;;14.70;55.94
49949;BME280;35840;45.982;8.890;2023-02-25T14:23:51;96451.03;;;14.60;55.00
49949;BME280;35840;45.982;8.890;2023-02-25T14:26:29;96466.69;;;14.67;55.65
49949;BME280;35840;45.982;8.890;2023-02-25T14:29:27;96455.19;;;14.61;54.74
49949;BME280;35840;45.982;8.890;2023-02-25T14:37:30;96449.72;;;14.56;55.74
49949;BME280;35840;45.982;8.890;2023-02-25T14:48:09;96471.44;;;14.31;59.21
49949;BME280;35840;45.982;8.890;2023-02-25T14:51:13;96477.72;;;14.03;61.00
49949;BME280;35840;45.982;8.890;2023-02-25T14:56:53;96493.72;;;13.82;62.22
49949;BME280;35840;45.982;8.890;2023-02-25T15:05:10;96489.78;;;13.62;62.83
49949;BME280;35840;45.982;8.890;2023-02-25T15:07:54;96486.88;;;13.65;62.61
49949;BME280;35840;45.982;8.890;2023-02-25T15:10:47;96495.78;;;13.70;62.12
49949;BME280;35840;45.982;8.890;2023-02-25T15:13:36;96490.75;;;13.69;62.96
49949;BME280;35840;45.982;8.890;2023-02-25T15:21:40;96468.09;;;13.38;61.92
49949;BME280;35840;45.982;8.890;2023-02-25T15:24:36;96491.53;;;13.45;62.65
49949;BME280;35840;45.982;8.890;2023-02-25T15:30:08;96481.94;;;13.29;61.25
49949;BME280;35840;45.982;8.890;2023-02-25T15:42:59;96511.56;;;13.16;60.01
49949;BME280;35840;45.982;8.890;2023-02-25T15:55:42;96525.41;;;12.81;61.02
49949;BME280;35840;45.982;8.890;2023-02-25T16:09:00;96538.00;;;12.21;62.29
49949;BME280;35840;45.982;8.890;2023-02-25T16:11:47;96538.97;;;12.20;63.14
49949;BME280;35840;45.982;8.890;2023-02-25T16:16:58;96556.66;;;12.15;64.15
49949;BME280;35840;45.982;8.890;2023-02-25T16:19:28;96543.38;;;12.10;63.08
49949;BME280;35840;45.982;8.890;2023-02-25T16:22:01;96561.72;;;12.07;63.64
49949;BME280;35840;45.982;8.890;2023-02-25T16:24:30;96562.59;;;11.98;63.86
49949;BME280;35840;45.982;8.890;2023-02-25T16:27:30;96570.03;;;12.01;63.72
49949;BME280;35840;45.982;8.890;2023-02-25T16:35:27;96576.31;;;11.88;63.98
49949;BME280;35840;45.982;8.890;2023-02-25T16:40:30;96592.50;;;11.81;63.84
49949;BME280;35840;45.982;8.890;2023-02-25T16:43:02;96592.69;;;11.69;64.81
49949;BME280;35840;45.982;8.890;2023-02-25T16:45:33;96587.81;;;11.66;64.49
49949;BME280;35840;45.982;8.890;2023-02-25T16:48:07;96583.25;;;11.60;64.40
49949;BME280;35840;45.982;8.890;2023-02-25T16:50:45;96580.69;;;11.60;63.71
49949;BME280;35840;45.982;8.890;2023-02-25T16:53:19;96579.88;;;11.60;63.78
49949;BME280;35840;45.982;8.890;2023-02-25T16:55:47;96585.69;;;11.62;63.72
49949;BME280;35840;45.982;8.890;2023-02-25T16:58:22;96590.38;;;11.66;64.02
49949;BME280;35840;45.982;8.890;2023-02-25T17:00:58;96592.59;;;11.61;64.42
49949;BME280;35840;45.982;8.890;2023-02-25T17:03:29;96589.06;;;11.62;63.77
49949;BME280;35840;45.982;8.890;2023-02-25T17:08:29;96605.75;;;11.58;64.27
49949;BME280;35840;45.982;8.890;2023-02-25T17:10:57;96605.50;;;11.51;65.12
49949;BME280;35840;45.982;8.890;2023-02-25T17:13:30;96610.94;;;11.48;65.21
49949;BME280;35840;45.982;8.890;2023-02-25T17:15:57;96608.38;;;11.48;65.53
49949;BME280;35840;45.982;8.890;2023-02-25T17:18:42;96599.97;;;11.46;65.24
49949;BME280;35840;45.982;8.890;2023-02-25T17:21:21;96606.75;;;11.47;64.64
49949;BME280;35840;45.982;8.890;2023-02-25T17:23:49;96612.56;;;11.40;64.66
49949;BME280;35840;45.982;8.890;2023-02-25T17:26:17;96615.88;;;11.32;65.16
49949;BME280;35840;45.982;8.890;2023-02-25T17:28:47;96616.97;;;11.19;65.98
49949;BME280;35840;45.982;8.890;2023-02-25T17:31:17;96611.63;;;11.03;67.05
49949;BME280;35840;45.982;8.890;2023-02-25T17:33:55;96603.94;;;10.93;67.51